createdAt,value
2022-12-27T00:02:13.866Z,74.67
2022-12-27T00:04:40.530Z,74.05
2022-12-27T00:07:07.372Z,73.94
2022-12-27T00:09:33.978Z,73.79
2022-12-27T00:17:18.895Z,73.36
2022-12-27T00:19:45.508Z,73.33
2022-12-27T00:25:38.870Z,73.23
2022-12-27T00:28:05.551Z,73.73
2022-12-27T00:30:32.664Z,73.73
2022-12-27T00:32:59.258Z,74.40
2022-12-27T00:35:25.795Z,74.90
2022-12-27T00:37:52.362Z,74.47
2022-12-27T01:19:36.471Z,73.77
2022-12-27T01:22:04.089Z,74.77
2022-12-27T01:33:39.284Z,75.96
2022-12-27T01:36:14.842Z,76.37
2022-12-27T01:38:44.777Z,76.43
2022-12-27T01:41:51.075Z,77.00
2022-12-27T01:45:01.301Z,76.61
2022-12-27T01:47:51.562Z,76.49
2022-12-27T01:50:40.988Z,76.22
2022-12-27T01:53:25.875Z,76.07
2022-12-27T01:59:58.768Z,76.73
2022-12-27T02:50:31.156Z,73.83
2022-12-27T03:00:44.369Z,73.57
2022-12-27T03:03:29.052Z,73.57
2022-12-27T03:06:36.923Z,73.39
2022-12-27T03:10:02.258Z,73.63
2022-12-27T03:16:09.424Z,73.33
2022-12-27T03:18:54.295Z,73.57
2022-12-27T03:21:51.846Z,73.65
2022-12-27T03:47:57.879Z,74.14
2022-12-27T03:50:50.615Z,74.38
2022-12-27T04:15:26.145Z,74.73
2022-12-27T04:18:11.881Z,74.70
2022-12-27T04:20:57.296Z,74.34
2022-12-27T04:23:42.969Z,74.12
2022-12-27T04:26:28.578Z,74.07
2022-12-27T04:33:19.454Z,73.80
2022-12-27T04:35:46.120Z,74.06
2022-12-27T04:41:09.616Z,73.77
2022-12-27T04:49:36.176Z,74.09
2022-12-27T04:52:21.665Z,74.04
2022-12-27T04:54:57.085Z,74.24
2022-12-27T04:57:24.043Z,73.95
2022-12-27T05:00:09.172Z,73.80
2022-12-27T05:02:36.453Z,73.77
2022-12-27T05:05:53.182Z,74.05
2022-12-27T05:08:50.823Z,74.00
2022-12-27T05:11:36.475Z,74.31
2022-12-27T05:14:06.788Z,74.06
2022-12-27T05:16:39.428Z,73.83
2022-12-27T05:19:40.062Z,73.83
2022-12-27T05:22:47.708Z,73.92
2022-12-27T05:25:34.938Z,73.57
2022-12-27T05:37:09.459Z,74.37
2022-12-27T05:39:36.132Z,74.52
2022-12-27T05:42:03.261Z,74.38
2022-12-27T05:44:29.866Z,74.46
2022-12-27T05:46:56.632Z,74.28
2022-12-27T05:49:25.663Z,74.18
2022-12-27T05:51:52.199Z,75.49
2022-12-27T05:54:18.745Z,75.20
2022-12-27T05:56:45.341Z,75.88
2022-12-27T05:59:11.853Z,75.18
2022-12-27T06:01:38.533Z,74.56
2022-12-27T06:04:05.326Z,74.54
2022-12-27T06:06:31.877Z,74.45
2022-12-27T06:08:58.476Z,74.43
2022-12-27T06:11:25.042Z,74.64
2022-12-27T06:13:53.323Z,75.98
2022-12-27T06:16:21.938Z,75.36
2022-12-27T06:18:48.654Z,76.19
2022-12-27T06:21:18.406Z,76.55
2022-12-27T06:23:45.935Z,78.09
2022-12-27T06:26:24.505Z,77.57
2022-12-27T06:28:52.160Z,77.54
2022-12-27T06:31:20.104Z,76.43
2022-12-27T06:33:48.111Z,76.14
2022-12-27T06:36:17.737Z,76.32
2022-12-27T06:38:45.103Z,76.42
2022-12-27T06:41:14.434Z,76.80
2022-12-27T06:43:41.581Z,76.86
2022-12-27T06:46:17.031Z,77.05
2022-12-27T06:48:44.767Z,76.87
2022-12-27T06:51:12.959Z,76.02
2022-12-27T06:53:39.751Z,75.85
2022-12-27T06:56:08.495Z,75.23
2022-12-27T06:58:35.091Z,75.25
2022-12-27T07:01:20.247Z,74.33
2022-12-27T07:04:00.579Z,73.83
2022-12-27T07:06:30.111Z,73.46
2022-12-27T07:08:58.396Z,73.22
2022-12-27T07:11:25.348Z,72.80
2022-12-27T07:13:54.857Z,73.39
2022-12-27T07:16:24.441Z,73.27
2022-12-27T07:18:51.326Z,73.15
2022-12-27T07:21:20.517Z,72.92
2022-12-27T07:23:47.761Z,72.30
2022-12-27T07:26:20.237Z,71.86
2022-12-27T07:28:47.080Z,71.38
2022-12-27T07:31:16.540Z,72.19
2022-12-27T07:33:43.837Z,71.84
2022-12-27T07:36:17.234Z,71.67
2022-12-27T07:38:44.446Z,71.04
2022-12-27T07:41:12.249Z,70.70
2022-12-27T07:43:38.977Z,70.01
2022-12-27T07:46:14.088Z,70.62
2022-12-27T07:48:41.355Z,69.52
2022-12-27T07:51:08.583Z,68.55
2022-12-27T07:53:35.574Z,68.85
2022-12-27T07:56:06.745Z,67.73
2022-12-27T07:58:36.892Z,67.78
2022-12-27T08:01:04.691Z,66.72
2022-12-27T08:03:31.437Z,66.18
2022-12-27T08:05:58.039Z,65.99
2022-12-27T08:08:31.731Z,64.71
2022-12-27T08:11:05.179Z,64.49
2022-12-27T08:13:32.455Z,62.86
2022-12-27T08:16:01.629Z,62.43
2022-12-27T08:18:28.490Z,62.33
2022-12-27T08:20:55.810Z,62.71
2022-12-27T08:23:22.440Z,62.82
2022-12-27T08:25:49.306Z,61.99
2022-12-27T08:28:17.822Z,62.57
2022-12-27T08:30:45.621Z,62.71
2022-12-27T08:33:12.831Z,62.51
2022-12-27T08:35:52.713Z,62.79
2022-12-27T08:38:20.363Z,63.20
2022-12-27T08:40:46.997Z,63.58
2022-12-27T08:43:14.311Z,63.54
2022-12-27T08:45:41.220Z,63.63
2022-12-27T08:48:08.527Z,63.64
2022-12-27T08:50:35.190Z,63.81
2022-12-27T08:53:04.224Z,63.61
2022-12-27T08:55:31.889Z,62.86
2022-12-27T08:58:09.254Z,62.33
2022-12-27T09:00:40.602Z,62.80
2022-12-27T09:03:07.256Z,61.24
2022-12-27T09:05:41.188Z,60.52
2022-12-27T09:08:08.377Z,59.89
2022-12-27T09:10:34.926Z,58.72
2022-12-27T09:13:01.496Z,58.28
2022-12-27T09:15:28.067Z,58.13
2022-12-27T09:17:54.639Z,57.67
2022-12-27T09:20:21.232Z,57.37
2022-12-27T09:22:47.785Z,56.93
2022-12-27T09:25:14.355Z,56.96
2022-12-27T09:27:40.905Z,56.46
2022-12-27T09:30:08.602Z,56.95
2022-12-27T09:32:35.503Z,56.23
2022-12-27T09:35:03.539Z,54.76
2022-12-27T09:37:31.716Z,54.93
2022-12-27T09:39:58.336Z,54.09
2022-12-27T09:43:01.955Z,52.90
2022-12-27T09:45:43.131Z,52.88
2022-12-27T09:48:39.567Z,52.03
2022-12-27T09:51:19.137Z,51.85
2022-12-27T09:54:04.145Z,51.90
2022-12-27T09:56:54.508Z,51.53
2022-12-27T09:59:30.526Z,49.38
2022-12-27T10:01:57.141Z,47.21
2022-12-27T10:04:24.257Z,48.16
2022-12-27T10:07:13.103Z,47.38
2022-12-27T10:10:03.217Z,47.98
2022-12-27T10:12:35.761Z,48.30
2022-12-27T10:15:19.132Z,47.95
2022-12-27T10:17:52.705Z,47.87
2022-12-27T10:20:26.244Z,47.25
2022-12-27T10:23:14.417Z,46.54
2022-12-27T10:25:41.403Z,47.96
2022-12-27T10:28:25.572Z,47.67
2022-12-27T10:31:20.279Z,47.47
2022-12-27T10:33:48.894Z,46.79
2022-12-27T10:36:21.003Z,48.01
2022-12-27T10:41:55.904Z,49.38
2022-12-27T10:44:33.050Z,49.33
2022-12-27T10:47:00.739Z,48.86
2022-12-27T10:49:28.780Z,49.35
2022-12-27T10:52:22.075Z,50.47
2022-12-27T10:54:54.148Z,49.61
2022-12-27T10:57:36.194Z,50.56
2022-12-27T11:00:23.576Z,50.39
2022-12-27T11:02:53.470Z,50.27
2022-12-27T11:05:30.200Z,49.94
2022-12-27T11:08:04.638Z,50.43
2022-12-27T11:10:34.226Z,51.01
2022-12-27T11:13:14.636Z,51.11
2022-12-27T11:15:58.280Z,51.13
2022-12-27T11:18:25.424Z,51.44
2022-12-27T11:21:00.475Z,51.83
2022-12-27T11:23:43.276Z,51.01
2022-12-27T11:26:19.969Z,51.08
2022-12-27T11:29:02.085Z,50.17
2022-12-27T11:31:48.702Z,50.30
2022-12-27T11:34:21.207Z,49.30
2022-12-27T11:36:52.157Z,49.46
2022-12-27T11:39:41.639Z,50.36
2022-12-27T11:42:19.434Z,50.52
2022-12-27T12:20:07.931Z,45.37
2022-12-27T12:22:45.367Z,45.96
2022-12-27T12:25:38.868Z,46.12
2022-12-27T12:28:56.883Z,46.68
2022-12-27T12:48:46.517Z,44.34
2022-12-27T12:51:50.744Z,44.89
2022-12-27T12:54:39.031Z,46.34
2022-12-27T12:57:21.444Z,45.30
2022-12-27T13:00:09.298Z,45.46
2022-12-27T13:03:01.022Z,45.87
2022-12-27T13:08:39.006Z,46.49
2022-12-27T13:11:33.542Z,44.00
2022-12-27T13:14:34.394Z,44.64
2022-12-27T13:17:21.502Z,44.66
2022-12-27T13:20:14.727Z,44.74
2022-12-27T13:23:01.608Z,44.52
2022-12-27T13:26:07.639Z,46.76
2022-12-27T13:29:35.915Z,44.37
2022-12-27T13:32:05.344Z,44.59
2022-12-27T13:34:58.915Z,44.74
2022-12-27T13:40:39.110Z,44.78
2022-12-27T13:43:14.334Z,45.53
2022-12-27T14:04:59.191Z,46.52
2022-12-27T14:07:48.198Z,47.14
2022-12-27T14:10:37.002Z,46.28
2022-12-27T14:16:11.848Z,46.89
2022-12-27T14:18:38.445Z,47.11
2022-12-27T14:21:34.971Z,47.65
2022-12-27T14:24:11.270Z,47.71
2022-12-27T14:27:03.747Z,47.13
2022-12-27T14:30:02.175Z,47.50
2022-12-27T14:32:31.335Z,47.98
2022-12-27T14:35:36.832Z,47.39
2022-12-27T14:38:25.196Z,48.03
2022-12-27T14:41:24.925Z,47.04
2022-12-27T14:44:25.967Z,46.96
2022-12-27T14:47:04.615Z,46.99
2022-12-27T14:49:40.356Z,47.17
2022-12-27T14:52:13.114Z,47.37
2022-12-27T14:55:22.767Z,48.04
2022-12-27T14:58:18.259Z,48.51
2022-12-27T15:01:09.058Z,48.58
2022-12-27T15:34:21.321Z,52.81
2022-12-27T15:36:55.172Z,53.24
2022-12-27T15:39:37.540Z,52.89
2022-12-27T15:45:12.044Z,54.49
2022-12-27T15:48:12.669Z,53.08
2022-12-27T15:51:06.475Z,53.11
2022-12-27T15:53:42.908Z,53.90
2022-12-27T15:56:36.781Z,54.48
2022-12-27T16:20:36.401Z,55.38
2022-12-27T16:25:46.084Z,54.04
2022-12-27T16:28:27.787Z,53.74
2022-12-27T16:30:56.577Z,53.86
2022-12-27T16:33:26.232Z,53.68
2022-12-27T16:36:13.531Z,54.07
2022-12-27T16:38:43.832Z,53.80
2022-12-27T16:41:25.763Z,53.88
2022-12-27T16:44:17.960Z,53.73
2022-12-27T16:46:59.984Z,54.32
2022-12-27T16:50:41.327Z,55.09
2022-12-27T16:56:25.868Z,56.31
2022-12-27T16:58:52.658Z,56.96
2022-12-27T17:01:32.665Z,56.08
2022-12-27T17:04:00.592Z,56.86
2022-12-27T17:06:33.192Z,58.20
2022-12-27T17:09:38.003Z,58.42
2022-12-27T17:12:22.132Z,57.41
2022-12-27T17:22:39.243Z,55.66
2022-12-27T17:25:06.673Z,56.26
2022-12-27T17:27:45.980Z,55.92
2022-12-27T17:30:44.235Z,56.14
2022-12-27T17:36:09.152Z,56.04
2022-12-27T17:39:01.917Z,56.76
2022-12-27T17:42:04.848Z,56.30
2022-12-27T17:45:06.405Z,56.08
2022-12-27T17:47:37.198Z,56.50
2022-12-27T17:53:34.854Z,56.36
2022-12-27T17:56:29.501Z,56.88
2022-12-27T17:59:13.838Z,56.94
2022-12-27T18:02:28.860Z,57.89
2022-12-27T18:05:06.443Z,59.16
2022-12-27T18:07:35.136Z,58.82
2022-12-27T18:10:03.689Z,58.86
2022-12-27T18:12:36.585Z,59.47
2022-12-27T18:15:07.033Z,58.94
2022-12-27T18:46:01.943Z,56.07
2022-12-27T18:48:35.138Z,55.75
2022-12-27T18:51:03.146Z,56.48
2022-12-27T18:53:38.674Z,56.71
2022-12-27T18:56:29.333Z,56.87
2022-12-27T19:03:25.129Z,56.78
2022-12-27T19:06:12.663Z,57.14
2022-12-27T19:08:46.176Z,57.16
2022-12-27T19:11:33.055Z,57.28
2022-12-27T19:14:22.767Z,57.55
2022-12-27T19:17:22.825Z,57.53
2022-12-27T20:01:19.400Z,59.14
2022-12-27T20:03:46.101Z,58.67
2022-12-27T20:06:22.965Z,58.87
2022-12-27T20:08:53.286Z,58.41
2022-12-27T20:11:22.009Z,58.12
2022-12-27T20:14:14.649Z,58.51
2022-12-27T20:16:42.437Z,58.78
2022-12-27T20:19:13.402Z,58.77
2022-12-27T20:21:40.626Z,59.01
2022-12-27T20:28:01.309Z,58.42
2022-12-27T20:30:32.989Z,58.42
2022-12-27T21:27:01.426Z,58.01
2022-12-27T21:37:24.183Z,57.67
2022-12-27T21:48:42.800Z,58.94
2022-12-27T21:51:14.875Z,58.61
2022-12-27T21:53:42.549Z,58.40
2022-12-27T21:56:11.561Z,58.32
2022-12-27T21:58:39.405Z,58.52
2022-12-27T22:01:12.875Z,58.71
2022-12-27T22:03:41.774Z,58.93
2022-12-27T22:06:11.094Z,58.76
2022-12-27T22:08:37.929Z,58.96
2022-12-27T22:11:04.757Z,59.19
2022-12-27T22:13:32.925Z,59.33
2022-12-27T22:16:01.923Z,59.45
2022-12-27T22:18:36.925Z,59.79
2022-12-27T22:21:07.957Z,59.92
2022-12-27T22:23:41.544Z,59.85
2022-12-27T22:26:13.596Z,60.35
2022-12-27T22:28:41.003Z,59.85
2022-12-27T22:31:09.640Z,59.83
2022-12-27T22:33:36.805Z,59.84
2022-12-27T22:36:09.353Z,59.81
2022-12-27T22:38:37.032Z,60.05
2022-12-27T22:41:15.084Z,60.12
2022-12-27T22:43:43.830Z,60.11
2022-12-27T22:46:13.145Z,59.83
2022-12-27T22:48:40.937Z,60.13
2022-12-27T22:51:19.506Z,60.65
2022-12-27T22:53:47.138Z,60.65
2022-12-27T22:56:16.654Z,60.13
2022-12-27T22:59:09.140Z,59.32
2022-12-27T23:01:36.444Z,60.63
2022-12-27T23:04:05.827Z,60.92
2022-12-27T23:06:34.771Z,61.04
2022-12-27T23:09:48.807Z,61.22
2022-12-27T23:12:39.982Z,61.12
2022-12-27T23:15:07.249Z,60.57
2022-12-27T23:17:33.795Z,60.04
2022-12-27T23:20:00.343Z,59.77
2022-12-27T23:22:26.922Z,60.00
2022-12-27T23:24:53.736Z,61.02
2022-12-27T23:27:20.440Z,60.72
2022-12-27T23:29:47.159Z,61.17
2022-12-27T23:32:13.831Z,61.09
2022-12-27T23:34:40.393Z,61.49
2022-12-27T23:37:07.038Z,61.46
2022-12-27T23:39:33.647Z,61.16
2022-12-27T23:42:15.278Z,61.51
2022-12-27T23:44:41.832Z,61.38
2022-12-27T23:47:08.445Z,61.30
2022-12-27T23:49:35.076Z,61.57
2022-12-27T23:52:25.729Z,61.57
